1st December 2019 | Otago, New Zealand

The Pioneer fuelled by Nutri-Grain (2019)

Stage 1 - Moke Lake to Arrowtown Teams

Pos Team Name Team Time Points Category (Pos)
1 (#128) ONYA BIKE NORTH OTAGO 03:35:42 3 Open Men (1)
2 (#110) GIANT AUSTRALIA OFF-ROAD TEAM 03:38:47 7 Open Men (2)
3 (#119) MAAP SHIMANO 03:42:07 11 Open Men (3)
4 (#148) WINGER HAMILTON 03:42:12 15 Open Men (4)
5 (#108) CYCLIST MAGAZINE 03:54:46 19 Open Men (5)
6 (#151) MARATHONMTB.COM 03:55:20 23 Open Men (6)
7 (#126) MCMILLAN CIVIL 03:58:55 27 Open Men (7)
8 (#133) SPECIALISED STRUCTURES 03:59:38 31 Open Men (8)
9 (#136) GREENMONKEY 04:03:18 35 Open Men (9)
10 (#336) TEAM JOJO 04:03:19 39 Mixed (1)
11 (#440) OFF THE CHAIN 04:05:19 43 Masters Men (1)
12 (#106) CYCLE WORLD RACING 04:06:08 47 Open Men (10)
13 (#326) TEAM NEW WORLD-PIVOT 04:06:34 51 Mixed (2)
14 (#630) TERREACTIVE IT SECURITY 04:06:56 55 Grand Masters Men (1)
15 (#121) MORTGAGE ME NZ CYCLING PROJECT 04:12:58 59 Open Men (11)
16 (#333) SRAM MTOSS 04:13:18 63 Mixed (3)
17 (#105) CIRCUIT ASPHALT 04:13:57 67 Open Men (12)
18 (#432) RIVET RACING 04:20:43 71 Masters Men (2)
19 (#410) CYCLE OBSESSION 04:22:14 75 Masters Men (3)
20 (#203) STONEWOOD HOMES 04:24:00 79 Open Women (1)
21 (#633) THE HUB CYCLE CENTRE - RUNNING OUT OF SUMMERS 04:24:28 83 Grand Masters Men (2)
22 (#429) OPTIMAL PERFORMANCE 04:25:41 87 Masters Men (4)
23 (#412) CYCLINGTIPS.COM 04:27:22 91 Masters Men (5)
24 (#608) CYCLEWAYS 04:31:24 95 Grand Masters Men (3)
25 (#127) ONE HIT WONDERS 04:31:57 99 Open Men (13)
26 (#134) SQUAREONE PHYSIO 04:31:58 103 Open Men (14)
27 (#124) NEW WORLD ST MARTINS 04:33:19 107 Open Men (15)
28 (#434) SHAUN & MATT - AKA SHAT 04:34:04 111 Masters Men (6)
29 (#323) SHIMANO PUSHYS CANNONDALE 04:35:41 115 Mixed (4)
30 (#116) LANKY N RANKY 04:37:35 119 Open Men (16)
31 (#638) VELO WORKSHOP 04:37:37 123 Grand Masters Men (4)
32 (#107) CYCLETIME HAMILTON 04:37:39 127 Open Men (17)
33 (#413) DAIKIN THERMAL SOLUTIONS 04:37:39 131 Masters Men (7)
34 (#335) GREENMONKEY/PIVOT CYCLES 04:37:55 135 Mixed (5)
35 (#437) SILVERSKYCYCLE 04:39:25 139 Masters Men (8)
36 (#620) RIDETECHNICS 04:39:42 143 Grand Masters Men (5)
37 (#137) TEAM ELEVATE 04:39:44 147 Open Men (18)
38 (#444) TEAM SMIDDY 04:40:25 151 Masters Men (9)
39 (#436) SHOW NO WEAKNESS 04:41:04 155 Masters Men (10)
40 (#411) STICKY BOTTLE 04:42:06 159 Masters Men (11)
41 (#414) DUSTYDAZE WHANGAREI 04:42:54 163 Masters Men (12)
42 (#317) MTBVL ADVENTURES 04:43:24 167 Mixed (6)
43 (#118) LES MORREAUX 04:45:00 171 Open Men (19)
44 (#427) OAMARU HONDA 04:51:36 175 Masters Men (13)
45 (#102) BLUBLOKES 04:53:55 179 Open Men (20)
46 (#130) PURE SPORTS NUTRITION 04:54:31 184 Open Men (21)
47 (#141) TEDS & FLASH 04:54:31 186 Open Men (22)
48 (#311) FASTLANE 2 04:56:08 191 Mixed (7)
49 (#202) NEW WORLD ST MARTINS WOMEN 04:57:39 195 Open Women (2)
50 (#139) TEAM VELO-REICHMUTH.CH 04:57:48 199 Open Men (23)
51 (#101) FLEET CYCLES 04:57:50 203 Open Men (24)
52 (#452) VEGAS BOYS 04:59:26 207 Masters Men (14)
53 (#138) TEAM PINNACLE 04:59:56 211 Open Men (25)
54 (#149) THE PIONEERS 05:02:27 215 Open Men (26)
55 (#310) EQUIPE IRIS-BOB CYCLO 05:03:08 219 Mixed (8)
56 (#503) EARNSCLEUGH EXPRESS 05:05:02 223 Masters Women (1)
57 (#430) OUT OF OFFICE 05:07:09 227 Masters Men (15)
58 (#114) KIESER AUSTRALIA 05:09:23 231 Open Men (27)
59 (#143) THE HANDLEBAR DADS - MOVEMBER NZ 05:09:29 235 Open Men (28)
60 (#305) BIKETO-YUXI TEAM 05:10:35 239 Mixed (9)
61 (#424) MEOGP RACING TEAM 05:11:28 243 Masters Men (16)
62 (#640) LES CROQUES MONSIEURS 05:12:26 247 Grand Masters Men (6)
63 (#201) TIKI WINE & VINEYARDS 05:12:54 251 Open Women (3)
64 (#320) REMARKABLE PHYSIOS 05:16:02 255 Mixed (10)
65 (#641) TWO OLD FOR THIS MATE 05:16:35 259 Grand Masters Men (7)
66 (#111) GOOI MIELIES 05:17:18 263 Open Men (29)
67 (#428) OLD BOYS OUT OF CONTROL 05:21:45 267 Masters Men (17)
68 (#146) TWO WATTS 05:22:40 271 Open Men (30)
69 (#405) BLACKYARD RACING - STRAYA 05:27:18 275 Masters Men (18)
70 (#147) WRBIKES 05:27:49 279 Open Men (31)
71 (#422) KEA - EAGLE 05:28:44 283 Masters Men (19)
72 (#123) NBRCC 05:29:47 287 Open Men (32)
73 (#454) WAZZA DUO 05:32:05 291 Masters Men (20)
74 (#450) THE WOLFPACK 05:32:40 295 Masters Men (21)
75 (#314) LIV AND JOE 05:33:48 299 Mixed (11)
76 (#618) RANGI ROCKETS 05:33:51 303 Grand Masters Men (8)
77 (#104) CALCONASSOS IBIZA 2 05:35:26 307 Open Men (33)
78 (#150) TEAM GREFIN 05:36:12 311 Open Men (34)
79 (#316) MOUNTAIN SNAILS 05:38:48 317 Mixed (12)
80 (#603) 2DEGREES 05:39:18 321 Grand Masters Men (9)
81 (#601) 1E SIBA MTB TEAM 05:39:23 325 Grand Masters Men (10)
82 (#140) TEAM VICTORY VETS 05:40:05 329 Open Men (35)
83 (#621) SEEDED WHEELS 05:42:08 333 Grand Masters Men (11)
84 (#315) LYNX REAL ESTATE 05:43:01 337 Mixed (13)
85 (#609) DEFEND FIRE PROTECTION 05:43:13 341 Mixed (14)
86 (#449) THE VIKINGS 05:43:45 345 Masters Men (22)
87 (#443) TEAM RACK 'N' STACK 05:44:36 349 Masters Men (23)
88 (#302) ALREADY KNOW BETTER! 05:45:17 353 Mixed (15)
89 (#328) THE FREE WHEELERS 05:45:21 357 Mixed (16)
90 (#447) THE BENDS 05:47:33 361 Masters Men (24)
91 (#330) CYCLE OBSESSION - MIXED 05:48:05 365 Mixed (17)
92 (#419) ICE 05:48:15 369 Masters Men (25)
93 (#433) RPM 05:49:07 373 Masters Men (26)
94 (#507) OUTLAW SISTERS 05:49:50 377 Masters Women (2)
95 (#301) AKSA TEAM 05:50:32 381 Mixed (18)
96 (#408) CALSONASSOS IBIZA 1 05:51:36 385 Masters Men (27)
97 (#318) PADDY & CO 05:51:42 389 Mixed (19)
98 (#451) TWO WEAK LINKS 05:51:45 393 Masters Men (28)
99 (#610) DEUSA 05:53:29 397 Grand Masters Men (12)
100 (#426) NEW WORLD KUMEU 05:54:41 401 Masters Men (29)
101 (#607) CRY N' FEAR 05:55:10 405 Grand Masters Men (13)
102 (#313) KISIELS@50 05:56:28 411 Mixed (20)
103 (#637) TWO SOUTHERN MEN 05:57:42 415 Grand Masters Men (14)
104 (#438) SINOGULF 05:57:55 419 Masters Men (30)
105 (#135) TARANAKI HARDTAILS 05:58:21 423 Open Men (36)
106 (#625) TEAM BIG RIDE 06:00:10 427 Grand Masters Men (15)
107 (#415) FIZO CYCLING 06:02:15 431 Masters Men (31)
108 (#508) TEAM CYCLEWAYS 06:03:27 435 Masters Women (3)
109 (#407) CALCONASSOS IBIZA 3 06:07:14 439 Masters Men (32)
110 (#502) DEFEND FIRE PROTECTION GIRLS ON FIRE 06:09:48 443 Masters Women (4)
111 (#401) 2 BROKE BLOKES 06:10:39 447 Masters Men (33)
112 (#125) NOT HERE TO F**K SPIDERS 06:11:24 451 Open Men (37)
113 (#122) GALILEO RISK 06:11:57 455 Open Men (38)
114 (#303) AN EPIC COMBO 06:14:06 459 Mixed (21)
115 (#445) TERRA FIRMA SKODA 06:14:32 463 Masters Men (34)
116 (#306) BLACKYARD RACING - SI 06:15:10 467 Mixed (22)
117 (#129) PROJECT THREE SIXTY LIMITED 06:18:43 471 Open Men (39)
118 (#402) 4 STRONG LEGS 06:20:22 475 Masters Men (35)
119 (#145) THE OTHER GUYS 06:22:49 481 Open Men (40)
120 (#501) CABLE LOGGING GERALDINE NZ 06:22:52 485 Masters Women (5)
121 (#321) SERPANTIN 06:23:45 489 Mixed (23)
122 (#113) KELLYS CAFE & BAR 06:24:47 493 Open Men (41)
123 (#446) THE 2 AMIGOS 06:25:09 497 Masters Men (36)
124 (#629) TEAM: NUTRI-GRAIN 06:25:22 501 Grand Masters Men (16)
125 (#417) HILLBILLYS 06:25:48 505 Masters Men (37)
126 (#505) I SHOP NEW WORLD 06:28:53 509 Masters Women (6)
127 (#622) SMILES FOR THE PACIFIC 06:31:31 513 Grand Masters Men (17)
128 (#456) ZOOMEN 06:31:40 517 Masters Men (38)
129 (#420) INOSYM 06:32:33 521 Masters Men (39)
130 (#606) AXIS HOUSE CYCLE 4 CANSA 06:34:18 525 Grand Masters Men (18)
131 (#319) RED ALERT 06:35:07 529 Mixed (24)
132 (#615) JAM 06:36:00 533 Grand Masters Men (19)
133 (#604) 86 400 06:38:47 537 Grand Masters Men (20)
134 (#307) BLACKYARD RACING NI 06:39:01 541 Mixed (25)
135 (#117) LEGEND CHX 06:40:00 547 Open Men (42)
136 (#612) EPICURE 06:41:01 551 Grand Masters Men (21)
137 (#304) JACQUES & GEORGIA 06:41:24 555 Mixed (26)
138 (#628) TEAM X 06:42:28 559 Grand Masters Men (22)
139 (#409) CALSONASSOS IBIZA 4 06:42:29 563 Masters Men (40)
140 (#617) OH REALLY 06:44:58 567 Grand Masters Men (23)
141 (#623) SO FAR BUT SO CLOSE 06:44:58 571 Grand Masters Men (24)
142 (#329) THE WHEELS 06:45:38 575 Mixed (27)
143 (#626) TEAM DNR 06:46:22 581 Grand Masters Men (25)
144 (#131) RATHOLE RACING 06:47:21 585 Open Men (43)
145 (#639) WELL VENTECH 06:49:20 589 Grand Masters Men (26)
146 (#506) NORTH TO SOUTH 06:50:31 593 Masters Women (7)
147 (#442) TEAM KT-26 06:51:55 599 Masters Men (41)
148 (#324) SUNKONGS 06:52:35 603 Mixed (28)
149 (#634) THE WHIPPETS 06:53:30 587 Grand Masters Men (27)
150 (#416) GLOBALID 06:54:19 607 Masters Men (42)
151 (#441) TEAM DANÆS AHON 06:56:38 611 Masters Men (43)
152 (#602) 2 AUSSIE PADDLERS 06:59:30 615 Grand Masters Men (28)
153 (#624) START SLOW 06:59:41 619 Grand Masters Men (29)
154 (#421) ITS CHEAPER THAN THERAPY 07:00:16 623 Masters Men (44)
155 (#635) TRYING AGAIN 07:00:26 627 Grand Masters Men (30)
156 (#406) BOTH SIDES OF THE DITCH 07:02:59 631 Masters Men (45)
157 (#453) WALTER AND STATLER 07:04:48 635 Masters Men (46)
158 (#605) AGAINST ALL ODDS 07:05:48 639 Grand Masters Men (31)
159 (#142) THAT'S THE RHYTHM 07:10:20 643 Open Men (44)
160 (#423) LUP & HONG 07:12:16 647 Masters Men (47)
161 (#325) TEAM EDGAR 07:14:31 651 Mixed (29)
162 (#627) TEAM MAMMOTH 07:16:24 655 Grand Masters Men (32)
163 (#332) WESTRA-CHOO 07:29:53 659 Mixed (30)
164 (#455) WINE DINE FINISH LINE 07:37:50 665 Masters Men (48)
165 (#613) GIORGI EXCLUSIVE HOMES 07:54:23 669 Grand Masters Men (33)
166 (#115) LA PLATA PEDALERS 08:05:41 674 Open Men (45)
167 (#308) COLORADO CRUISERS 08:05:41 676 Mixed (31)
168 (#631) THE BARNES GROUP RACING SNAKES 08:09:20 681 Grand Masters Men (34)
169 (#439) SYED & JUAN MTB TEAM 08:09:38 685 Masters Men (49)
170 (#418) I CLIMB WELL FOR MY WEIGHT 08:43:52 691 Masters Men (50)
171 (#504) GREG PARRÆS GIRL TORQUE 09:07:24 695 Masters Women (8)
172 (#327) TEAM PHENOMENAL HOPE 09:15:36 699 Mixed (32)
- (#632) THE BEAVERTOWN BOYS Grand Masters Men
- (#144) THE HIPPY & THE GYPPY Open Men
- (#435) SHIMANO Masters Men
- (#614) GIVE IT HORNS Grand Masters Men
- (#312) FENTON Mixed
- (#103) BLUE CYCLES Open Men